Sy Capt. Cook — DJ4343 — position and weather

sailwx.info

Track history (hours):
 
Tides and Currents Weather Stations Pressure Air Temp Water Temp Dewpoint Dewpoint Depression Visibility Wind Speed Wind Dir Waves Ship Positions

Sy Capt. Cook

Last reported at 2017-Aug-18 15:57 UTC. Time now 2017-Aug-20 17:04 UTC.
Position N 38°32' W 028°38'.

Length 13 m.

Type: Sailing vessel. MMSI: 211508500.

Date/timePositionNaut miles runAvg speedWind from/ knotsBaromVisibWave heightAir tempDewpointWater temp
2017-Aug-18 15:57N 38°32' W 028°38'0 0.0
2017-Aug-18 15:30N 38°32' W 028°38'0 0.3
2017-Aug-18 14:58N 38°32' W 028°38'0 0.0
2017-Aug-18 14:28N 38°32' W 028°38'0 0.0
2017-Aug-18 13:28N 38°32' W 028°38'0 0.0
2017-Aug-18 12:58N 38°32' W 028°38'0 0.0
2017-Aug-18 12:28N 38°32' W 028°38'0 0.0
2017-Aug-18 11:58N 38°32' W 028°38'0 0.0
2017-Aug-18 11:28N 38°32' W 028°38'0 0.0
2017-Aug-18 10:58N 38°32' W 028°38'0 0.0
2017-Aug-18 10:28N 38°32' W 028°38'0 0.0
2017-Aug-18 09:58N 38°32' W 028°38'0 0.0
2017-Aug-18 09:28N 38°32' W 028°38'0 0.0
2017-Aug-18 08:58N 38°32' W 028°38'0 0.0
2017-Aug-18 08:28N 38°32' W 028°38'0 0.0
2017-Aug-18 07:58N 38°32' W 028°38'0 0.0
2017-Aug-18 07:28N 38°32' W 028°38'0 0.0
2017-Aug-18 06:58N 38°32' W 028°38'0 0.0
2017-Aug-18 06:28N 38°32' W 028°38'0 0.0
2017-Aug-18 05:58N 38°32' W 028°38'0 0.0
2017-Aug-18 05:28N 38°32' W 028°38'0 0.0
2017-Aug-18 04:58N 38°32' W 028°38'0 0.0
2017-Aug-18 04:28N 38°32' W 028°38'0 0.0
2017-Aug-18 03:58N 38°32' W 028°38'0 0.0
2017-Aug-18 03:19N 38°32' W 028°38'0 0.0
2017-Aug-18 02:58N 38°32' W 028°38'0 0.0
2017-Aug-18 02:25N 38°32' W 028°38'0 0.0
2017-Aug-18 01:58N 38°32' W 028°38'0 0.0
2017-Aug-18 01:28N 38°32' W 028°38'0 0.0
2017-Aug-18 00:58N 38°32' W 028°38'0 0.0
2017-Aug-18 00:28N 38°32' W 028°38'0 0.0
2017-Aug-17 23:58N 38°32' W 028°38'0 0.0
2017-Aug-17 23:28N 38°32' W 028°38'0 0.0
2017-Aug-17 22:58N 38°32' W 028°38'0 0.0
2017-Aug-17 22:28N 38°32' W 028°38'0 0.0
2017-Aug-17 21:58N 38°32' W 028°38'0 0.0
2017-Aug-17 21:28N 38°32' W 028°38'0 0.0
2017-Aug-17 20:58N 38°32' W 028°38'0 0.0
2017-Aug-17 20:28N 38°32' W 028°38'0 0.0
2017-Aug-17 19:59N 38°32' W 028°38'0 0.0
2017-Aug-17 19:28N 38°32' W 028°38'0 0.0
2017-Aug-17 18:58N 38°32' W 028°38'0 0.0
2017-Aug-17 18:28N 38°32' W 028°38'0 0.0
2017-Aug-17 17:58N 38°32' W 028°38'0 0.0
2017-Aug-17 17:29N 38°32' W 028°38'0 0.0
2017-Aug-17 16:58N 38°32' W 028°38'0 0.0
2017-Aug-17 16:28N 38°32' W 028°38'0 0.0
2017-Aug-17 15:59N 38°32' W 028°38'0 0.0
2017-Aug-17 15:28N 38°32' W 028°38'0 0.0
2017-Aug-17 14:59N 38°32' W 028°38'0 0.0
2017-Aug-17 14:28N 38°32' W 028°38'0 0.0
2017-Aug-17 13:58N 38°32' W 028°38'0 0.0
2017-Aug-17 13:29N 38°32' W 028°38'0 0.0
2017-Aug-17 12:59N 38°32' W 028°38'0 0.0
2017-Aug-17 12:26N 38°32' W 028°38'0 0.0
2017-Aug-17 11:59N 38°32' W 028°38'0 0.0
2017-Aug-17 11:29N 38°32' W 028°38'0 0.0
2017-Aug-17 10:58N 38°32' W 028°38'0 0.0
2017-Aug-17 10:28N 38°32' W 028°38'0 0.0
2017-Aug-17 09:58N 38°32' W 028°38'0 0.0
2017-Aug-17 09:29N 38°32' W 028°38'0 0.0
2017-Aug-17 08:59N 38°32' W 028°38'0 0.0
2017-Aug-17 08:29N 38°32' W 028°38'0 0.0
2017-Aug-17 07:58N 38°32' W 028°38'1 2.1
2017-Aug-17 07:30N 38°31' W 028°37'3 6.5
2017-Aug-17 07:00N 38°28' W 028°38'3 5.5
2017-Aug-17 06:31N 38°26' W 028°41'3 5.5
2017-Aug-17 06:00N 38°25' W 028°44'3 5.6
2017-Aug-17 05:30N 38°24' W 028°48'3 5.7
2017-Aug-17 05:00N 38°23' W 028°51'3 5.6
2017-Aug-17 04:30N 38°22' W 028°54'3 5.7
2017-Aug-17 04:00N 38°21' W 028°57'3 5.6
2017-Aug-17 03:30N 38°19' W 029°01'3 5.7
2017-Aug-17 03:01N 38°18' W 029°04'3 5.4
2017-Aug-17 02:30N 38°17' W 029°07'3 5.4
2017-Aug-17 02:01N 38°15' W 029°09'3 5.3
2017-Aug-17 01:30N 38°14' W 029°13'3 5.6
2017-Aug-17 01:00N 38°13' W 029°16'3 5.6
2017-Aug-17 00:30N 38°12' W 029°19'3 5.7
2017-Aug-16 23:59N 38°11' W 029°23'3 5.6
2017-Aug-16 23:22N 38°10' W 029°27'2 5.1
2017-Aug-16 23:01N 38°10' W 029°29'3 5.4
2017-Aug-16 22:29N 38°08' W 029°33'3 5.4
2017-Aug-16 21:59N 38°07' W 029°36'3 5.3
2017-Aug-16 21:29N 38°06' W 029°39'3 5.2
2017-Aug-16 20:56N 38°05' W 029°42'5 5.0
2017-Aug-16 19:56N 38°04' W 029°48'3 4.9
2017-Aug-16 19:23N 38°03' W 029°51'1 0.8
2017-Aug-16 18:38N 38°02' W 029°51'1 0.7
2017-Aug-16 17:19N 38°01' W 029°50'0 0.7
2017-Aug-16 16:55N 38°01' W 029°50'1 0.6
2017-Aug-16 15:42N 38°00' W 029°50'1 0.4
2017-Aug-16 14:03N 38°00' W 029°50'  
Track history (hours):
 
Tides and Currents Weather Stations Pressure Air Temp Water Temp Dewpoint Dewpoint Depression Visibility Wind Speed Wind Dir Waves Ship Positions

Sy Capt. Cook

Last reported at 2017-Aug-18 15:57 UTC. Time now 2017-Aug-20 17:04 UTC.
Position N 38°32' W 028°38'.

Length 13 m.

Type: Sailing vessel. MMSI: 211508500.

Date/timePositionNaut miles runAvg speedWind from/ knotsBaromVisibWave heightAir tempDewpointWater temp
2017-Aug-18 15:57N 38°32' W 028°38'0 0.0
2017-Aug-18 15:30N 38°32' W 028°38'0 0.3
2017-Aug-18 14:58N 38°32' W 028°38'0 0.0
2017-Aug-18 14:28N 38°32' W 028°38'0 0.0
2017-Aug-18 13:28N 38°32' W 028°38'0 0.0
2017-Aug-18 12:58N 38°32' W 028°38'0 0.0
2017-Aug-18 12:28N 38°32' W 028°38'0 0.0
2017-Aug-18 11:58N 38°32' W 028°38'0 0.0
2017-Aug-18 11:28N 38°32' W 028°38'0 0.0
2017-Aug-18 10:58N 38°32' W 028°38'0 0.0
2017-Aug-18 10:28N 38°32' W 028°38'0 0.0
2017-Aug-18 09:58N 38°32' W 028°38'0 0.0
2017-Aug-18 09:28N 38°32' W 028°38'0 0.0
2017-Aug-18 08:58N 38°32' W 028°38'0 0.0
2017-Aug-18 08:28N 38°32' W 028°38'0 0.0
2017-Aug-18 07:58N 38°32' W 028°38'0 0.0
2017-Aug-18 07:28N 38°32' W 028°38'0 0.0
2017-Aug-18 06:58N 38°32' W 028°38'0 0.0
2017-Aug-18 06:28N 38°32' W 028°38'0 0.0
2017-Aug-18 05:58N 38°32' W 028°38'0 0.0
2017-Aug-18 05:28N 38°32' W 028°38'0 0.0
2017-Aug-18 04:58N 38°32' W 028°38'0 0.0
2017-Aug-18 04:28N 38°32' W 028°38'0 0.0
2017-Aug-18 03:58N 38°32' W 028°38'0 0.0
2017-Aug-18 03:19N 38°32' W 028°38'0 0.0
2017-Aug-18 02:58N 38°32' W 028°38'0 0.0
2017-Aug-18 02:25N 38°32' W 028°38'0 0.0
2017-Aug-18 01:58N 38°32' W 028°38'0 0.0
2017-Aug-18 01:28N 38°32' W 028°38'0 0.0
2017-Aug-18 00:58N 38°32' W 028°38'0 0.0
2017-Aug-18 00:28N 38°32' W 028°38'0 0.0
2017-Aug-17 23:58N 38°32' W 028°38'0 0.0
2017-Aug-17 23:28N 38°32' W 028°38'0 0.0
2017-Aug-17 22:58N 38°32' W 028°38'0 0.0
2017-Aug-17 22:28N 38°32' W 028°38'0 0.0
2017-Aug-17 21:58N 38°32' W 028°38'0 0.0
2017-Aug-17 21:28N 38°32' W 028°38'0 0.0
2017-Aug-17 20:58N 38°32' W 028°38'0 0.0
2017-Aug-17 20:28N 38°32' W 028°38'0 0.0
2017-Aug-17 19:59N 38°32' W 028°38'0 0.0
2017-Aug-17 19:28N 38°32' W 028°38'0 0.0
2017-Aug-17 18:58N 38°32' W 028°38'0 0.0
2017-Aug-17 18:28N 38°32' W 028°38'0 0.0
2017-Aug-17 17:58N 38°32' W 028°38'0 0.0
2017-Aug-17 17:29N 38°32' W 028°38'0 0.0
2017-Aug-17 16:58N 38°32' W 028°38'0 0.0
2017-Aug-17 16:28N 38°32' W 028°38'0 0.0
2017-Aug-17 15:59N 38°32' W 028°38'0 0.0
2017-Aug-17 15:28N 38°32' W 028°38'0 0.0
2017-Aug-17 14:59N 38°32' W 028°38'0 0.0
2017-Aug-17 14:28N 38°32' W 028°38'0 0.0
2017-Aug-17 13:58N 38°32' W 028°38'0 0.0
2017-Aug-17 13:29N 38°32' W 028°38'0 0.0
2017-Aug-17 12:59N 38°32' W 028°38'0 0.0
2017-Aug-17 12:26N 38°32' W 028°38'0 0.0
2017-Aug-17 11:59N 38°32' W 028°38'0 0.0
2017-Aug-17 11:29N 38°32' W 028°38'0 0.0
2017-Aug-17 10:58N 38°32' W 028°38'0 0.0
2017-Aug-17 10:28N 38°32' W 028°38'0 0.0
2017-Aug-17 09:58N 38°32' W 028°38'0 0.0
2017-Aug-17 09:29N 38°32' W 028°38'0 0.0
2017-Aug-17 08:59N 38°32' W 028°38'0 0.0
2017-Aug-17 08:29N 38°32' W 028°38'0 0.0
2017-Aug-17 07:58N 38°32' W 028°38'1 2.1
2017-Aug-17 07:30N 38°31' W 028°37'3 6.5
2017-Aug-17 07:00N 38°28' W 028°38'3 5.5
2017-Aug-17 06:31N 38°26' W 028°41'3 5.5
2017-Aug-17 06:00N 38°25' W 028°44'3 5.6
2017-Aug-17 05:30N 38°24' W 028°48'3 5.7
2017-Aug-17 05:00N 38°23' W 028°51'3 5.6
2017-Aug-17 04:30N 38°22' W 028°54'3 5.7
2017-Aug-17 04:00N 38°21' W 028°57'3 5.6
2017-Aug-17 03:30N 38°19' W 029°01'3 5.7
2017-Aug-17 03:01N 38°18' W 029°04'3 5.4
2017-Aug-17 02:30N 38°17' W 029°07'3 5.4
2017-Aug-17 02:01N 38°15' W 029°09'3 5.3
2017-Aug-17 01:30N 38°14' W 029°13'3 5.6
2017-Aug-17 01:00N 38°13' W 029°16'3 5.6
2017-Aug-17 00:30N 38°12' W 029°19'3 5.7
2017-Aug-16 23:59N 38°11' W 029°23'3 5.6
2017-Aug-16 23:22N 38°10' W 029°27'2 5.1
2017-Aug-16 23:01N 38°10' W 029°29'3 5.4
2017-Aug-16 22:29N 38°08' W 029°33'3 5.4
2017-Aug-16 21:59N 38°07' W 029°36'3 5.3
2017-Aug-16 21:29N 38°06' W 029°39'3 5.2
2017-Aug-16 20:56N 38°05' W 029°42'5 5.0
2017-Aug-16 19:56N 38°04' W 029°48'3 4.9
2017-Aug-16 19:23N 38°03' W 029°51'1 0.8
2017-Aug-16 18:38N 38°02' W 029°51'1 0.7
2017-Aug-16 17:19N 38°01' W 029°50'0 0.7
2017-Aug-16 16:55N 38°01' W 029°50'1 0.6
2017-Aug-16 15:42N 38°00' W 029°50'1 0.4
2017-Aug-16 14:03N 38°00' W 029°50'  

Dump ship's entire track history